sensor_id;sensor_type;location;lat;lon;timestamp;pressure;altitude;pressure_sealevel;temperature;humidity
71043;BME280;58696;52.134;5.500;2024-03-23T00:52:24;101022.59;;;7.36;73.08
71043;BME280;58696;52.134;5.500;2024-03-23T00:54:52;101017.50;;;7.36;73.05
71043;BME280;58696;52.134;5.500;2024-03-23T00:57:18;101018.47;;;7.35;73.01
71043;BME280;58696;52.134;5.500;2024-03-23T00:59:44;101015.25;;;7.33;73.00
71043;BME280;58696;52.134;5.500;2024-03-23T01:02:09;101021.97;;;7.34;73.10
71043;BME280;58696;52.134;5.500;2024-03-23T01:04:35;101022.91;;;7.33;73.12
71043;BME280;58696;52.134;5.500;2024-03-23T01:07:02;101017.00;;;7.32;73.05
71043;BME280;58696;52.134;5.500;2024-03-23T01:09:27;101017.00;;;7.32;73.10
71043;BME280;58696;52.134;5.500;2024-03-23T01:11:58;101012.69;;;7.33;73.10
71043;BME280;58696;52.134;5.500;2024-03-23T01:14:24;101021.00;;;7.35;73.12
71043;BME280;58696;52.134;5.500;2024-03-23T01:16:52;101017.66;;;7.34;73.11
71043;BME280;58696;52.134;5.500;2024-03-23T01:19:18;101000.69;;;7.33;73.13
71043;BME280;58696;52.134;5.500;2024-03-23T01:21:46;101009.19;;;7.34;73.05
71043;BME280;58696;52.134;5.500;2024-03-23T01:24:15;101004.09;;;7.34;73.13
71043;BME280;58696;52.134;5.500;2024-03-23T01:26:41;100997.34;;;7.33;73.11
71043;BME280;58696;52.134;5.500;2024-03-23T01:29:06;100984.56;;;7.33;73.09
71043;BME280;58696;52.134;5.500;2024-03-23T01:31:34;100991.28;;;7.34;73.13
71043;BME280;58696;52.134;5.500;2024-03-23T01:34:00;100978.81;;;7.31;73.12
71043;BME280;58696;52.134;5.500;2024-03-23T01:36:26;100986.31;;;7.32;73.09
71043;BME280;58696;52.134;5.500;2024-03-23T01:38:52;100971.44;;;7.28;73.08
71043;BME280;58696;52.134;5.500;2024-03-23T01:41:18;100974.16;;;7.26;72.98
71043;BME280;58696;52.134;5.500;2024-03-23T01:43:43;100966.66;;;7.25;73.04
71043;BME280;58696;52.134;5.500;2024-03-23T01:46:11;100959.97;;;7.24;73.02
71043;BME280;58696;52.134;5.500;2024-03-23T01:48:42;100957.69;;;7.21;73.10
71043;BME280;58696;52.134;5.500;2024-03-23T01:51:10;100957.38;;;7.16;72.91
71043;BME280;58696;52.134;5.500;2024-03-23T01:53:36;100954.47;;;7.10;72.95
71043;BME280;58696;52.134;5.500;2024-03-23T01:56:03;100945.84;;;7.03;72.91
71043;BME280;58696;52.134;5.500;2024-03-23T01:58:31;100950.91;;;6.95;72.92
71043;BME280;58696;52.134;5.500;2024-03-23T02:00:57;100955.22;;;6.87;72.94
71043;BME280;58696;52.134;5.500;2024-03-23T02:03:25;100955.69;;;6.82;72.88
71043;BME280;58696;52.134;5.500;2024-03-23T02:05:54;100943.69;;;6.74;72.84
71043;BME280;58696;52.134;5.500;2024-03-23T02:08:21;100946.38;;;6.73;72.87
71043;BME280;58696;52.134;5.500;2024-03-23T02:10:50;100947.94;;;6.66;72.90
71043;BME280;58696;52.134;5.500;2024-03-23T02:13:17;100949.19;;;6.62;72.97
71043;BME280;58696;52.134;5.500;2024-03-23T02:15:46;100947.59;;;6.61;73.00
71043;BME280;58696;52.134;5.500;2024-03-23T02:18:14;100948.22;;;6.54;73.04
71043;BME280;58696;52.134;5.500;2024-03-23T02:20:39;100949.63;;;6.49;72.82
71043;BME280;58696;52.134;5.500;2024-03-23T02:23:15;100943.88;;;6.47;72.93
71043;BME280;58696;52.134;5.500;2024-03-23T02:25:41;100940.84;;;6.43;72.85
71043;BME280;58696;52.134;5.500;2024-03-23T02:28:07;100944.63;;;6.39;72.94
71043;BME280;58696;52.134;5.500;2024-03-23T02:30:33;100937.44;;;6.35;73.02
71043;BME280;58696;52.134;5.500;2024-03-23T02:32:59;100936.13;;;6.30;72.92
71043;BME280;58696;52.134;5.500;2024-03-23T02:35:27;100922.09;;;6.26;72.93
71043;BME280;58696;52.134;5.500;2024-03-23T02:37:53;100918.88;;;6.24;73.02
71043;BME280;58696;52.134;5.500;2024-03-23T02:40:23;100918.22;;;6.22;73.04
71043;BME280;58696;52.134;5.500;2024-03-23T02:42:50;100928.59;;;6.21;73.01
71043;BME280;58696;52.134;5.500;2024-03-23T02:45:16;100927.28;;;6.17;72.90
71043;BME280;58696;52.134;5.500;2024-03-23T02:47:41;100929.50;;;6.12;72.88
71043;BME280;58696;52.134;5.500;2024-03-23T02:50:07;100928.06;;;6.09;72.94
71043;BME280;58696;52.134;5.500;2024-03-23T02:52:34;100926.59;;;6.06;72.92
71043;BME280;58696;52.134;5.500;2024-03-23T02:55:00;100932.00;;;6.03;72.84
71043;BME280;58696;52.134;5.500;2024-03-23T02:57:30;100936.75;;;5.98;72.89
71043;BME280;58696;52.134;5.500;2024-03-23T02:59:55;100923.47;;;5.95;72.90
71043;BME280;58696;52.134;5.500;2024-03-23T03:02:22;100928.88;;;5.92;72.92
71043;BME280;58696;52.134;5.500;2024-03-23T03:04:47;100928.47;;;5.87;72.94
71043;BME280;58696;52.134;5.500;2024-03-23T03:07:14;100923.69;;;5.84;72.92
71043;BME280;58696;52.134;5.500;2024-03-23T03:09:40;100924.50;;;5.84;73.00
71043;BME280;58696;52.134;5.500;2024-03-23T03:12:08;100933.09;;;5.83;73.01
71043;BME280;58696;52.134;5.500;2024-03-23T03:14:34;100928.94;;;5.82;73.00
71043;BME280;58696;52.134;5.500;2024-03-23T03:17:03;100938.47;;;5.80;73.00
71043;BME280;58696;52.134;5.500;2024-03-23T03:19:33;100926.16;;;5.75;72.93
71043;BME280;58696;52.134;5.500;2024-03-23T03:21:59;100932.38;;;5.73;72.96
71043;BME280;58696;52.134;5.500;2024-03-23T03:24:28;100928.38;;;5.70;73.00
71043;BME280;58696;52.134;5.500;2024-03-23T03:26:56;100927.06;;;5.66;72.96
71043;BME280;58696;52.134;5.500;2024-03-23T03:29:24;100923.38;;;5.61;72.92
71043;BME280;58696;52.134;5.500;2024-03-23T03:31:50;100923.66;;;5.58;72.91
71043;BME280;58696;52.134;5.500;2024-03-23T03:34:19;100926.63;;;5.53;72.93
71043;BME280;58696;52.134;5.500;2024-03-23T03:36:45;100921.84;;;5.50;72.94
71043;BME280;58696;52.134;5.500;2024-03-23T03:39:13;100917.19;;;5.45;72.95
71043;BME280;58696;52.134;5.500;2024-03-23T03:41:39;100911.41;;;5.43;72.68
71043;BME280;58696;52.134;5.500;2024-03-23T03:44:04;100914.44;;;5.39;72.69
71043;BME280;58696;52.134;5.500;2024-03-23T03:46:30;100901.16;;;5.35;72.80
71043;BME280;58696;52.134;5.500;2024-03-23T03:48:58;100907.22;;;5.34;72.87
71043;BME280;58696;52.134;5.500;2024-03-23T03:51:24;100904.94;;;5.31;72.85
71043;BME280;58696;52.134;5.500;2024-03-23T03:53:50;100906.16;;;5.27;72.80
71043;BME280;58696;52.134;5.500;2024-03-23T03:56:16;100895.63;;;5.22;72.82
71043;BME280;58696;52.134;5.500;2024-03-23T03:58:41;100898.47;;;5.19;72.83
71043;BME280;58696;52.134;5.500;2024-03-23T04:01:09;100899.53;;;5.16;72.78
71043;BME280;58696;52.134;5.500;2024-03-23T04:03:40;100894.59;;;5.15;72.63
71043;BME280;58696;52.134;5.500;2024-03-23T04:06:10;100892.34;;;5.12;72.72
71043;BME280;58696;52.134;5.500;2024-03-23T04:08:38;100893.28;;;5.11;72.85
71043;BME280;58696;52.134;5.500;2024-03-23T04:11:06;100892.00;;;5.07;72.83
71043;BME280;58696;52.134;5.500;2024-03-23T04:13:32;100903.13;;;5.06;72.89
71043;BME280;58696;52.134;5.500;2024-03-23T04:16:02;100889.56;;;5.05;72.76
71043;BME280;58696;52.134;5.500;2024-03-23T04:18:30;100891.63;;;5.01;72.90
71043;BME280;58696;52.134;5.500;2024-03-23T04:20:56;100885.06;;;4.99;72.86
71043;BME280;58696;52.134;5.500;2024-03-23T04:23:24;100884.25;;;4.98;72.85
71043;BME280;58696;52.134;5.500;2024-03-23T04:25:50;100881.22;;;4.95;72.86
71043;BME280;58696;52.134;5.500;2024-03-23T04:28:17;100886.44;;;4.93;72.87
71043;BME280;58696;52.134;5.500;2024-03-23T04:30:45;100879.75;;;4.92;72.91
71043;BME280;58696;52.134;5.500;2024-03-23T04:33:11;100880.69;;;4.91;72.88
71043;BME280;58696;52.134;5.500;2024-03-23T04:35:39;100882.44;;;4.91;72.86
71043;BME280;58696;52.134;5.500;2024-03-23T04:38:05;100879.09;;;4.90;72.91
71043;BME280;58696;52.134;5.500;2024-03-23T04:40:30;100876.66;;;4.89;72.93
71043;BME280;58696;52.134;5.500;2024-03-23T04:42:59;100872.53;;;4.88;72.92
71043;BME280;58696;52.134;5.500;2024-03-23T04:45:26;100875.38;;;4.85;72.90
71043;BME280;58696;52.134;5.500;2024-03-23T04:47:51;100878.72;;;4.85;72.88
71043;BME280;58696;52.134;5.500;2024-03-23T04:50:17;100883.81;;;4.85;72.84
71043;BME280;58696;52.134;5.500;2024-03-23T04:52:44;100876.03;;;4.87;72.84
71043;BME280;58696;52.134;5.500;2024-03-23T04:55:10;100885.25;;;4.88;72.83
71043;BME280;58696;52.134;5.500;2024-03-23T04:57:39;100879.75;;;4.92;72.85
71043;BME280;58696;52.134;5.500;2024-03-23T05:00:06;100875.66;;;4.99;72.85
71043;BME280;58696;52.134;5.500;2024-03-23T05:02:43;100874.44;;;5.04;72.84
71043;BME280;58696;52.134;5.500;2024-03-23T05:05:14;100873.00;;;5.01;72.87
71043;BME280;58696;52.134;5.500;2024-03-23T05:07:42;100869.41;;;4.94;72.84
71043;BME280;58696;52.134;5.500;2024-03-23T05:10:09;100867.44;;;4.88;72.84
71043;BME280;58696;52.134;5.500;2024-03-23T05:12:39;100878.34;;;4.80;72.83
71043;BME280;58696;52.134;5.500;2024-03-23T05:15:06;100883.22;;;4.73;72.82
71043;BME280;58696;52.134;5.500;2024-03-23T05:17:34;100876.66;;;4.71;72.83
71043;BME280;58696;52.134;5.500;2024-03-23T05:20:00;100876.28;;;4.66;72.83
71043;BME280;58696;52.134;5.500;2024-03-23T05:22:31;100885.00;;;4.63;72.81
71043;BME280;58696;52.134;5.500;2024-03-23T05:24:59;100881.94;;;4.60;72.82
71043;BME280;58696;52.134;5.500;2024-03-23T05:27:27;100887.03;;;4.60;72.81
71043;BME280;58696;52.134;5.500;2024-03-23T05:29:53;100888.78;;;4.59;72.84
71043;BME280;58696;52.134;5.500;2024-03-23T05:32:19;100892.41;;;4.57;72.81
71043;BME280;58696;52.134;5.500;2024-03-23T05:34:45;100890.13;;;4.54;72.82
71043;BME280;58696;52.134;5.500;2024-03-23T05:37:11;100888.00;;;4.49;72.81
71043;BME280;58696;52.134;5.500;2024-03-23T05:39:36;100892.44;;;4.47;72.81
71043;BME280;58696;52.134;5.500;2024-03-23T05:42:02;100881.97;;;4.50;72.80
71043;BME280;58696;52.134;5.500;2024-03-23T05:44:28;100884.78;;;4.57;72.81
71043;BME280;58696;52.134;5.500;2024-03-23T05:46:54;100887.03;;;4.60;72.81
71043;BME280;58696;52.134;5.500;2024-03-23T05:49:20;100893.28;;;4.65;72.81
71043;BME280;58696;52.134;5.500;2024-03-23T05:51:48;100888.16;;;4.75;72.82
71043;BME280;58696;52.134;5.500;2024-03-23T05:54:16;100879.75;;;4.92;72.84
71043;BME280;58696;52.134;5.500;2024-03-23T05:56:43;100883.09;;;5.11;72.87
71043;BME280;58696;52.134;5.500;2024-03-23T05:59:09;100879.69;;;5.20;72.89
71043;BME280;58696;52.134;5.500;2024-03-23T06:01:34;100877.81;;;5.22;72.88
71043;BME280;58696;52.134;5.500;2024-03-23T06:04:04;100873.00;;;5.19;72.86
71043;BME280;58696;52.134;5.500;2024-03-23T06:06:29;100881.44;;;5.19;72.84
71043;BME280;58696;52.134;5.500;2024-03-23T06:08:58;100875.69;;;5.17;72.85
71043;BME280;58696;52.134;5.500;2024-03-23T06:11:26;100877.94;;;5.20;72.89
71043;BME280;58696;52.134;5.500;2024-03-23T06:13:55;100883.81;;;5.21;72.87
71043;BME280;58696;52.134;5.500;2024-03-23T06:16:21;100884.63;;;5.21;72.89
71043;BME280;58696;52.134;5.500;2024-03-23T06:18:52;100880.63;;;5.19;72.87
71043;BME280;58696;52.134;5.500;2024-03-23T06:21:18;100878.25;;;5.17;72.88
71043;BME280;58696;52.134;5.500;2024-03-23T06:23:46;100881.28;;;5.21;72.89
71043;BME280;58696;52.134;5.500;2024-03-23T06:26:20;100883.81;;;5.21;72.89
71043;BME280;58696;52.134;5.500;2024-03-23T06:28:46;100880.03;;;5.25;72.89
71043;BME280;58696;52.134;5.500;2024-03-23T06:31:15;100877.00;;;5.39;72.90
71043;BME280;58696;52.134;5.500;2024-03-23T06:33:40;100869.22;;;6.11;72.93
71043;BME280;58696;52.134;5.500;2024-03-23T06:36:11;100869.13;;;5.94;72.91
71043;BME280;58696;52.134;5.500;2024-03-23T06:38:37;100867.06;;;6.82;72.99
71043;BME280;58696;52.134;5.500;2024-03-23T06:41:06;100852.91;;;7.53;73.03
71043;BME280;58696;52.134;5.500;2024-03-23T06:43:34;100864.84;;;7.85;73.05
71043;BME280;58696;52.134;5.500;2024-03-23T06:46:02;100866.34;;;8.27;73.08
71043;BME280;58696;52.134;5.500;2024-03-23T06:48:29;100868.22;;;8.33;73.08
71043;BME280;58696;52.134;5.500;2024-03-23T06:50:56;100873.94;;;9.29;73.14
71043;BME280;58696;52.134;5.500;2024-03-23T06:53:26;100870.41;;;10.56;73.23
71043;BME280;58696;52.134;5.500;2024-03-23T06:55:53;100865.56;;;10.83;73.23
71043;BME280;58696;52.134;5.500;2024-03-23T06:58:24;100867.34;;;10.01;73.16
71043;BME280;58696;52.134;5.500;2024-03-23T07:00:50;100871.88;;;9.62;73.11
71043;BME280;58696;52.134;5.500;2024-03-23T07:03:20;100875.50;;;8.92;73.06
71043;BME280;58696;52.134;5.500;2024-03-23T07:05:51;100879.94;;;9.59;73.11
71043;BME280;58696;52.134;5.500;2024-03-23T07:08:20;100875.09;;;9.26;73.05
71043;BME280;58696;52.134;5.500;2024-03-23T07:10:50;100883.28;;;9.21;72.97
71043;BME280;58696;52.134;5.500;2024-03-23T07:13:16;100882.81;;;9.18;72.81
71043;BME280;58696;52.134;5.500;2024-03-23T07:15:42;100872.63;;;8.87;72.80
71043;BME280;58696;52.134;5.500;2024-03-23T07:18:08;100874.63;;;9.22;73.05
71043;BME280;58696;52.134;5.500;2024-03-23T07:20:34;100877.44;;;9.51;73.06
71043;BME280;58696;52.134;5.500;2024-03-23T07:23:02;100873.75;;;9.53;73.07
71043;BME280;58696;52.134;5.500;2024-03-23T07:25:28;100868.81;;;9.29;73.09
71043;BME280;58696;52.134;5.500;2024-03-23T07:27:54;100866.53;;;10.01;73.15
71043;BME280;58696;52.134;5.500;2024-03-23T07:30:22;100863.09;;;10.74;73.10
71043;BME280;58696;52.134;5.500;2024-03-23T07:32:51;100868.84;;;10.76;73.10
71043;BME280;58696;52.134;5.500;2024-03-23T07:35:21;100862.84;;;11.12;73.17
71043;BME280;58696;52.134;5.500;2024-03-23T07:37:47;100877.13;;;10.57;73.16
71043;BME280;58696;52.134;5.500;2024-03-23T07:40:15;100871.41;;;10.25;73.16
71043;BME280;58696;52.134;5.500;2024-03-23T07:42:41;100867.34;;;10.31;73.21
71043;BME280;58696;52.134;5.500;2024-03-23T07:45:06;100867.16;;;10.33;73.13
71043;BME280;58696;52.134;5.500;2024-03-23T07:47:35;100875.84;;;10.17;73.15
71043;BME280;58696;52.134;5.500;2024-03-23T07:50:01;100870.97;;;10.07;73.11
71043;BME280;58696;52.134;5.500;2024-03-23T07:52:32;100868.06;;;10.25;73.14
71043;BME280;58696;52.134;5.500;2024-03-23T07:55:00;100869.88;;;10.16;73.14
71043;BME280;58696;52.134;5.500;2024-03-23T07:57:28;100867.94;;;10.48;73.14
71043;BME280;58696;52.134;5.500;2024-03-23T07:59:54;100876.19;;;9.84;73.13
71043;BME280;58696;52.134;5.500;2024-03-23T08:02:19;100877.59;;;11.74;73.19
71043;BME280;58696;52.134;5.500;2024-03-23T08:04:47;100864.47;;;13.33;73.17
71043;BME280;58696;52.134;5.500;2024-03-23T08:07:13;100876.97;;;13.29;73.47
71043;BME280;58696;52.134;5.500;2024-03-23T08:09:41;100870.00;;;13.63;73.50
71043;BME280;58696;52.134;5.500;2024-03-23T08:12:07;100872.56;;;12.97;73.46
71043;BME280;58696;52.134;5.500;2024-03-23T08:14:33;100868.22;;;13.17;73.43
71043;BME280;58696;52.134;5.500;2024-03-23T08:17:01;100864.03;;;13.62;73.43
71043;BME280;58696;52.134;5.500;2024-03-23T08:19:26;100862.53;;;15.89;73.41
71043;BME280;58696;52.134;5.500;2024-03-23T08:21:52;100866.22;;;15.32;73.43
71043;BME280;58696;52.134;5.500;2024-03-23T08:24:22;100872.81;;;14.26;73.35
71043;BME280;58696;52.134;5.500;2024-03-23T08:26:48;100863.56;;;13.99;73.52
71043;BME280;58696;52.134;5.500;2024-03-23T08:29:19;100868.59;;;13.14;73.34
71043;BME280;58696;52.134;5.500;2024-03-23T08:31:47;100875.59;;;11.42;73.28
71043;BME280;58696;52.134;5.500;2024-03-23T08:34:12;100868.59;;;12.33;73.40
71043;BME280;58696;52.134;5.500;2024-03-23T08:36:43;100874.13;;;12.84;73.38
71043;BME280;58696;52.134;5.500;2024-03-23T08:39:09;100869.28;;;14.07;73.49
71043;BME280;58696;52.134;5.500;2024-03-23T08:41:37;100881.50;;;13.14;73.42
71043;BME280;58696;52.134;5.500;2024-03-23T08:44:03;100877.13;;;11.64;73.37
71043;BME280;58696;52.134;5.500;2024-03-23T08:46:29;100870.41;;;10.56;73.25
71043;BME280;58696;52.134;5.500;2024-03-23T08:48:57;100872.28;;;11.26;73.30
71043;BME280;58696;52.134;5.500;2024-03-23T08:51:23;100861.00;;;10.48;73.26
71043;BME280;58696;52.134;5.500;2024-03-23T08:53:51;100867.31;;;10.46;73.25
71043;BME280;58696;52.134;5.500;2024-03-23T08:56:19;100879.00;;;9.89;73.21
71043;BME280;58696;52.134;5.500;2024-03-23T08:58:45;100871.25;;;9.22;73.14
71043;BME280;58696;52.134;5.500;2024-03-23T09:01:12;100874.22;;;8.88;73.15
71043;BME280;58696;52.134;5.500;2024-03-23T09:03:45;100866.44;;;8.81;73.14
71043;BME280;58696;52.134;5.500;2024-03-23T09:06:13;100870.00;;;8.95;73.16
71043;BME280;58696;52.134;5.500;2024-03-23T09:08:40;100866.47;;;9.42;73.19
71043;BME280;58696;52.134;5.500;2024-03-23T09:11:08;100855.94;;;8.91;73.15
71043;BME280;58696;52.134;5.500;2024-03-23T09:13:37;100853.44;;;8.52;73.12
71043;BME280;58696;52.134;5.500;2024-03-23T09:16:04;100859.28;;;8.29;73.10
71043;BME280;58696;52.134;5.500;2024-03-23T09:18:35;100854.78;;;8.31;73.10
71043;BME280;58696;52.134;5.500;2024-03-23T09:21:11;100858.47;;;8.29;73.10
71043;BME280;58696;52.134;5.500;2024-03-23T09:23:38;100862.41;;;8.48;73.11
71043;BME280;58696;52.134;5.500;2024-03-23T09:26:06;100860.59;;;8.17;73.09
71043;BME280;58696;52.134;5.500;2024-03-23T09:28:37;100863.75;;;7.72;73.04
71043;BME280;58696;52.134;5.500;2024-03-23T09:31:07;100870.81;;;7.45;73.03
71043;BME280;58696;52.134;5.500;2024-03-23T09:33:37;100861.22;;;7.15;73.01
71043;BME280;58696;52.134;5.500;2024-03-23T09:36:07;100857.03;;;7.05;73.01
71043;BME280;58696;52.134;5.500;2024-03-23T09:38:33;100847.16;;;7.02;73.00
71043;BME280;58696;52.134;5.500;2024-03-23T09:41:07;100851.28;;;7.11;73.02
71043;BME280;58696;52.134;5.500;2024-03-23T09:43:34;100848.91;;;7.26;73.01
71043;BME280;58696;52.134;5.500;2024-03-23T09:46:02;100850.50;;;7.52;73.04
71043;BME280;58696;52.134;5.500;2024-03-23T09:48:28;100855.63;;;7.35;73.03
71043;BME280;58696;52.134;5.500;2024-03-23T09:50:56;100852.59;;;7.32;73.03
71043;BME280;58696;52.134;5.500;2024-03-23T09:53:24;100867.94;;;7.24;73.04
71043;BME280;58696;52.134;5.500;2024-03-23T09:55:50;100870.78;;;7.04;73.02
71043;BME280;58696;52.134;5.500;2024-03-23T09:58:18;100852.88;;;6.88;72.99
71043;BME280;58696;52.134;5.500;2024-03-23T10:00:44;100855.09;;;6.75;72.98
71043;BME280;58696;52.134;5.500;2024-03-23T10:03:12;100848.44;;;7.23;73.03
71043;BME280;58696;52.134;5.500;2024-03-23T10:05:38;100842.47;;;7.79;73.07
71043;BME280;58696;52.134;5.500;2024-03-23T10:10:39;100835.78;;;8.65;73.14
71043;BME280;58696;52.134;5.500;2024-03-23T10:13:08;100845.28;;;9.02;73.17
71043;BME280;58696;52.134;5.500;2024-03-23T10:15:38;100837.13;;;9.21;73.09
71043;BME280;58696;52.134;5.500;2024-03-23T10:18:25;100830.88;;;9.39;73.20
71043;BME280;58696;52.134;5.500;2024-03-23T10:23:32;100831.56;;;9.70;73.23
71043;BME280;58696;52.134;5.500;2024-03-23T10:26:22;100839.09;;;9.34;73.18
71043;BME280;58696;52.134;5.500;2024-03-23T10:28:58;100838.97;;;9.51;73.18
71043;BME280;58696;52.134;5.500;2024-03-23T10:31:32;100838.41;;;9.26;73.16
71043;BME280;58696;52.134;5.500;2024-03-23T10:33:58;100834.47;;;9.15;73.14
71043;BME280;58696;52.134;5.500;2024-03-23T10:36:26;100838.31;;;9.34;73.19
71043;BME280;58696;52.134;5.500;2024-03-23T10:38:54;100837.09;;;9.44;73.17
71043;BME280;58696;52.134;5.500;2024-03-23T10:41:20;100817.38;;;9.45;73.17
71043;BME280;58696;52.134;5.500;2024-03-23T10:43:47;100838.53;;;9.62;73.19
71043;BME280;58696;52.134;5.500;2024-03-23T10:46:13;100832.09;;;9.95;73.22
71043;BME280;58696;52.134;5.500;2024-03-23T10:48:43;100823.84;;;10.30;73.24
71043;BME280;58696;52.134;5.500;2024-03-23T10:51:12;100832.19;;;10.68;73.26
71043;BME280;58696;52.134;5.500;2024-03-23T10:53:42;100822.44;;;10.63;73.27
71043;BME280;58696;52.134;5.500;2024-03-23T10:56:08;100834.94;;;10.00;73.22
71043;BME280;58696;52.134;5.500;2024-03-23T10:58:44;100849.16;;;9.59;73.20
71043;BME280;58696;52.134;5.500;2024-03-23T11:01:17;100854.63;;;8.95;73.14
71043;BME280;58696;52.134;5.500;2024-03-23T11:03:51;100852.13;;;8.16;73.08
71043;BME280;58696;52.134;5.500;2024-03-23T11:06:36;100860.22;;;7.81;73.05
71043;BME280;58696;52.134;5.500;2024-03-23T11:09:02;100849.03;;;7.74;73.05
71043;BME280;58696;52.134;5.500;2024-03-23T11:11:28;100844.56;;;7.76;73.05
71043;BME280;58696;52.134;5.500;2024-03-23T11:13:57;100852.88;;;8.33;73.12
71043;BME280;58696;52.134;5.500;2024-03-23T11:16:25;100842.78;;;8.94;73.14
71043;BME280;58696;52.134;5.500;2024-03-23T11:18:53;100841.66;;;9.19;73.16
71043;BME280;58696;52.134;5.500;2024-03-23T11:21:54;100836.25;;;9.52;73.21
71043;BME280;58696;52.134;5.500;2024-03-23T11:24:21;100833.50;;;9.83;73.22
71043;BME280;58696;52.134;5.500;2024-03-23T11:26:50;100831.72;;;9.84;73.23
71043;BME280;58696;52.134;5.500;2024-03-23T11:29:18;100825.44;;;9.57;73.17
71043;BME280;58696;52.134;5.500;2024-03-23T11:34:15;100839.72;;;8.76;73.12
71043;BME280;58696;52.134;5.500;2024-03-23T11:36:44;100824.75;;;8.56;73.10
71043;BME280;58696;52.134;5.500;2024-03-23T11:39:14;100822.16;;;9.10;73.16
71043;BME280;58696;52.134;5.500;2024-03-23T11:41:50;100824.19;;;9.67;73.20
71043;BME280;58696;52.134;5.500;2024-03-23T11:44:21;100825.47;;;10.01;73.22
71043;BME280;58696;52.134;5.500;2024-03-23T11:46:49;100812.25;;;10.04;73.22
71043;BME280;58696;52.134;5.500;2024-03-23T11:49:29;100817.09;;;10.43;73.25
71043;BME280;58696;52.134;5.500;2024-03-23T11:51:56;100789.03;;;10.63;73.26
71043;BME280;58696;52.134;5.500;2024-03-23T11:54:23;100800.09;;;10.64;73.26
71043;BME280;58696;52.134;5.500;2024-03-23T11:56:59;100806.69;;;10.88;73.28
71043;BME280;58696;52.134;5.500;2024-03-23T11:59:39;100805.19;;;10.57;73.25
71043;BME280;58696;52.134;5.500;2024-03-23T12:02:07;100802.53;;;9.99;73.21
71043;BME280;58696;52.134;5.500;2024-03-23T12:04:33;100797.41;;;9.70;73.20
71043;BME280;58696;52.134;5.500;2024-03-23T12:07:20;100800.81;;;9.33;73.18
71043;BME280;58696;52.134;5.500;2024-03-23T12:10:04;100807.53;;;9.19;73.15
71043;BME280;58696;52.134;5.500;2024-03-23T12:12:31;100794.78;;;9.26;73.16
71043;BME280;58696;52.134;5.500;2024-03-23T12:15:05;100803.44;;;9.62;73.19
71043;BME280;58696;52.134;5.500;2024-03-23T12:17:32;100800.16;;;9.68;73.19
71043;BME280;58696;52.134;5.500;2024-03-23T12:19:58;100799.44;;;9.60;73.17
71043;BME280;58696;52.134;5.500;2024-03-23T12:22:24;100801.28;;;9.36;73.17
71043;BME280;58696;52.134;5.500;2024-03-23T12:24:53;100792.88;;;9.05;73.14
71043;BME280;58696;52.134;5.500;2024-03-23T12:27:21;100786.06;;;8.97;73.13
71043;BME280;58696;52.134;5.500;2024-03-23T12:29:47;100783.31;;;9.36;73.17
71043;BME280;58696;52.134;5.500;2024-03-23T12:32:15;100781.03;;;9.86;73.21
71043;BME280;58696;52.134;5.500;2024-03-23T12:34:41;100773.53;;;10.20;73.23
71043;BME280;58696;52.134;5.500;2024-03-23T12:37:08;100782.16;;;9.98;73.21
71043;BME280;58696;52.134;5.500;2024-03-23T12:39:35;100761.81;;;9.67;73.19
71043;BME280;58696;52.134;5.500;2024-03-23T12:42:01;100776.06;;;9.40;73.16
71043;BME280;58696;52.134;5.500;2024-03-23T12:44:30;100773.66;;;9.38;73.17
71043;BME280;58696;52.134;5.500;2024-03-23T12:46:56;100783.34;;;9.95;73.21
71043;BME280;58696;52.134;5.500;2024-03-23T12:49:22;100783.16;;;9.97;73.21
71043;BME280;58696;52.134;5.500;2024-03-23T12:51:54;100769.06;;;9.78;73.20
71043;BME280;58696;52.134;5.500;2024-03-23T12:54:22;100775.50;;;10.18;73.23
71043;BME280;58696;52.134;5.500;2024-03-23T12:56:50;100781.25;;;10.20;73.21
71043;BME280;58696;52.134;5.500;2024-03-23T12:59:15;100776.63;;;9.80;73.21
71043;BME280;58696;52.134;5.500;2024-03-23T13:01:46;100778.88;;;9.45;73.17
71043;BME280;58696;52.134;5.500;2024-03-23T13:04:12;100768.56;;;9.53;73.20
71043;BME280;58696;52.134;5.500;2024-03-23T13:06:38;100770.25;;;9.90;73.22
71043;BME280;58696;52.134;5.500;2024-03-23T13:09:04;100778.47;;;9.71;73.19
71043;BME280;58696;52.134;5.500;2024-03-23T13:11:30;100767.94;;;9.36;73.18
71043;BME280;58696;52.134;5.500;2024-03-23T13:13:59;100779.75;;;9.22;73.17
71043;BME280;58696;52.134;5.500;2024-03-23T13:16:31;100775.13;;;9.03;73.15
71043;BME280;58696;52.134;5.500;2024-03-23T13:18:57;100774.00;;;8.83;73.12
71043;BME280;58696;52.134;5.500;2024-03-23T13:21:29;100772.16;;;8.68;73.11
71043;BME280;58696;52.134;5.500;2024-03-23T13:23:55;100773.50;;;9.02;73.14
71043;BME280;58696;52.134;5.500;2024-03-23T13:26:20;100762.19;;;9.64;73.17
71043;BME280;58696;52.134;5.500;2024-03-23T13:28:49;100771.03;;;9.76;73.20
71043;BME280;58696;52.134;5.500;2024-03-23T13:31:14;100778.53;;;9.33;73.15
71043;BME280;58696;52.134;5.500;2024-03-23T13:33:40;100788.88;;;9.02;73.14
71043;BME280;58696;52.134;5.500;2024-03-23T13:36:08;100802.72;;;8.47;73.09
71043;BME280;58696;52.134;5.500;2024-03-23T13:38:33;100821.09;;;8.11;73.08
71043;BME280;58696;52.134;5.500;2024-03-23T13:40:59;100796.69;;;7.93;73.06
71043;BME280;58696;52.134;5.500;2024-03-23T13:43:26;100770.97;;;7.86;73.05
71043;BME280;58696;52.134;5.500;2024-03-23T13:45:59;100785.66;;;8.00;73.06
71043;BME280;58696;52.134;5.500;2024-03-23T13:48:27;100778.94;;;8.30;73.09
71043;BME280;58696;52.134;5.500;2024-03-23T13:51:00;100781.56;;;8.99;73.14
71043;BME280;58696;52.134;5.500;2024-03-23T13:53:26;100772.00;;;9.45;73.17
71043;BME280;58696;52.134;5.500;2024-03-23T13:55:53;100775.44;;;9.67;73.20
71043;BME280;58696;52.134;5.500;2024-03-23T13:58:22;100782.25;;;9.45;73.18
71043;BME280;58696;52.134;5.500;2024-03-23T14:00:49;100778.34;;;9.35;73.17